tititudorancea.com
Station Historical Data
Daily Summary for July 16, 2018 Units:  Metric    English   Both
« Previous Day
Next Day »
Daily Weekly Monthly Yearly Custom
  High: Low: Average:
Temperature: -17.8 °C 6.4 °C 9.1 °C
Dew Point: -17.8 °C 0.6 °C 3.6 °C
Humidity: Humidity % 57 % 68 %
Wind Speed: 0 km/h 0 km/h 13.8 km/h
Wind Gust: 0 km/h - -
Wind:- - WSW
Pressure: 0 hPa 1005.3 hPa -
Precipitation: 0.76 mm    
Historical Graphs
 
 
Ararat weather Find more about Weather in Ararat, AU


 



 


Tabular Data for July 16, 2018
Time Temperature Dew Point Pressure Wind Wind Speed Wind Gust Humidity Rainfall Rate (Hourly)
-17.8 °C -17.8 °C 0 hPa Calm     Humidity % 0 mm
00:04 7.6 °C 2 °C 1008.4 hPa North 9.3 km/h 4.3 km/h 68 % 0 mm
00:09 7.7 °C 2 °C 1008.4 hPa North 9.3 km/h 6.4 km/h 67 % 0 mm
00:14 7.9 °C 1.9 °C 1008.4 hPa North 11.1 km/h 5.5 km/h 66 % 0 mm
00:19 8.1 °C 1.9 °C 1008.4 hPa North 9.3 km/h 6 km/h 65 % 0 mm
00:24 8.1 °C 1.9 °C 1008 hPa North 7.4 km/h 5.1 km/h 65 % 0 mm
00:29 8.1 °C 1.9 °C 1008 hPa North 5.6 km/h 4.7 km/h 65 % 0 mm
00:34 8.1 °C 1.9 °C 1008 hPa North 7.4 km/h 4.8 km/h 65 % 0 mm
00:39 8.1 °C 1.9 °C 1008 hPa North 5.6 km/h 5.3 km/h 65 % 0 mm
00:44 8.2 °C 1.8 °C 1008 hPa North 5.6 km/h 4.8 km/h 64 % 0 mm
00:49 8.2 °C 1.8 °C 1007.7 hPa North 5.6 km/h 3.9 km/h 64 % 0 mm
00:54 8.3 °C 1.9 °C 1007.7 hPa North 7.4 km/h 5.6 km/h 64 % 0 mm
00:59 8.4 °C 1.8 °C 1007.3 hPa North 16.7 km/h 9.5 km/h 63 % 0 mm
01:04 8.7 °C 1.6 °C 1007.3 hPa North 13 km/h 6.8 km/h 61 % 0 mm
01:09 8.9 °C 1.6 °C 1007.3 hPa North 11.1 km/h 5.1 km/h 60 % 0 mm
01:14 9.1 °C 1.4 °C 1007.3 hPa North 18.5 km/h 10.3 km/h 59 % 0 mm
01:19 9.2 °C 1.4 °C 1007 hPa North 16.7 km/h 6.6 km/h 58 % 0 mm
01:24 9.2 °C 1.4 °C 1007 hPa North 18.5 km/h 11.4 km/h 58 % 0 mm
01:29 9.2 °C 1.4 °C 1007 hPa North 20.4 km/h 14.6 km/h 58 % 0 mm
01:34 9.2 °C 1.1 °C 1007 hPa North 22.2 km/h 12.1 km/h 57 % 0 mm
01:39 9.2 °C 1.1 °C 1007 hPa NNW 18.5 km/h 11.4 km/h 57 % 0 mm
01:44 9.2 °C 1.1 °C 1007.3 hPa NNW 22.2 km/h 11.6 km/h 57 % 0 mm
01:49 9.2 °C 1.1 °C 1007 hPa North 20.9 km/h 14.6 km/h 57 % 0 mm
01:54 9.2 °C 1.1 °C 1007 hPa North 18.5 km/h 11.7 km/h 57 % 0 mm
01:59 9.2 °C 1.1 °C 1007 hPa North 18.5 km/h 11.7 km/h 57 % 0 mm
02:04 9.2 °C 1.1 °C 1007.3 hPa NNW 18.5 km/h 10.8 km/h 57 % 0 mm
02:09 9.2 °C 1.1 °C 1007.3 hPa NNW 16.7 km/h 11.7 km/h 57 % 0 mm
02:14 9.2 °C 1.1 °C 1007.3 hPa NNW 14.8 km/h 10.1 km/h 57 % 0 mm
02:19 9.1 °C 2 °C 1007.3 hPa NNW 14.8 km/h 11.4 km/h 61 % 0 mm
02:24 8.7 °C 2.3 °C 1007.3 hPa NNW 18.5 km/h 13.2 km/h 64 % 0 mm
02:29 8.3 °C 2.7 °C 1007.3 hPa North 14.8 km/h 10.3 km/h 68 % 0.25 mm
02:34 7.9 °C 2.9 °C 1007.3 hPa North 14.8 km/h 10.1 km/h 71 % 0.51 mm
02:39 7.6 °C 3 °C 1007 hPa North 14.8 km/h 13.2 km/h 73 % 0.51 mm
02:44 7.3 °C 3 °C 1006.7 hPa North 16.7 km/h 4.8 km/h 74 % 0.51 mm
02:49 7.2 °C 3.1 °C 1006.7 hPa North 11.3 km/h 8.5 km/h 75 % 0.51 mm
02:54 7.1 °C 3.1 °C 1006.7 hPa North 11.1 km/h 3.2 km/h 76 % 0.51 mm
02:59 6.9 °C 3.2 °C 1006.7 hPa North 11.3 km/h 3.5 km/h 77 % 0.76 mm
03:04 6.8 °C 3.3 °C 1006.7 hPa North 7.4 km/h 4.5 km/h 78 % 0.76 mm
03:09 6.8 °C 3.4 °C 1006.3 hPa North 9.3 km/h 6 km/h 79 % 0.76 mm
03:14 6.7 °C 3.3 °C 1006.3 hPa North 9.3 km/h 2.9 km/h 79 % 0.76 mm
03:19 6.6 °C 3.3 °C 1006.3 hPa North 8 km/h 6.8 km/h 80 % 0.76 mm
03:24 6.5 °C 3.3 °C 1006 hPa North 11.1 km/h 5.8 km/h 80 % 0.76 mm
03:29 6.4 °C 3.4 °C 1006.3 hPa North 13 km/h 6.3 km/h 81 % 0.51 mm
03:34 6.5 °C 3.5 °C 1006.7 hPa North 11.1 km/h 5.1 km/h 81 % 0.51 mm
03:39 6.6 °C 3.3 °C 1006.7 hPa North 13 km/h 5.5 km/h 80 % 0.25 mm
03:44 6.6 °C 3.3 °C 1006.3 hPa North 11.3 km/h 7.2 km/h 80 % 0.25 mm
03:49 6.6 °C 3.2 °C 1006 hPa North 18.5 km/h 8 km/h 79 % 0.25 mm
03:54 6.6 °C 3.2 °C 1006 hPa North 13 km/h 7.6 km/h 79 % 0.25 mm
03:59 6.6 °C 3 °C 1006 hPa North 14.5 km/h 7.7 km/h 78 % 0 mm
04:04 6.6 °C 3 °C 1006 hPa North 11.3 km/h 6.8 km/h 78 % 0 mm
04:09 6.6 °C 2.9 °C 1006 hPa North 16.1 km/h 11.6 km/h 77 % 0 mm
04:14 6.8 °C 2.8 °C 1006 hPa North 13 km/h 5.5 km/h 76 % 0 mm
04:19 6.8 °C 2.8 °C 1006 hPa North 9.3 km/h 7.1 km/h 76 % 0 mm
04:24 6.8 °C 2.9 °C 1006 hPa North 11.1 km/h 7.1 km/h 76 % 0 mm
04:29 6.9 °C 2.8 °C 1006 hPa North 12.9 km/h 7.9 km/h 75 % 0 mm
04:34 7.1 °C 2.6 °C 1006 hPa North 11.1 km/h 8.7 km/h 73 % 0 mm
04:39 7.1 °C 2.6 °C 1005.6 hPa North 9.3 km/h 6.8 km/h 73 % 0 mm
04:44 7.1 °C 2.6 °C 1005.6 hPa North 7.4 km/h 5 km/h 73 % 0 mm
04:49 7.1 °C 2.6 °C 1005.6 hPa North 11.3 km/h 8.2 km/h 73 % 0 mm
04:54 7 °C 2.5 °C 1005.6 hPa North 7.4 km/h 5.3 km/h 73 % 0 mm
04:59 7 °C 2.3 °C 1005.3 hPa North 11.1 km/h 8.5 km/h 72 % 0 mm
05:04 7 °C 2.1 °C 1005.3 hPa North 16.7 km/h 10.5 km/h 71 % 0 mm
05:09 7.2 °C 2.1 °C 1005.3 hPa North 13 km/h 9.2 km/h 70 % 0 mm
05:14 7.3 °C 1.9 °C 1005.3 hPa North 14.8 km/h 10.3 km/h 69 % 0 mm
05:19 7.3 °C 1.9 °C 1005.3 hPa North 13 km/h 8.7 km/h 69 % 0 mm
05:24 7.3 °C 1.8 °C 1005.3 hPa North 14.8 km/h 6.3 km/h 68 % 0 mm
05:29 7.2 °C 1.7 °C 1005.3 hPa North 9.3 km/h 4.3 km/h 68 % 0 mm
05:34 7.2 °C 1.7 °C 1005.3 hPa North 9.7 km/h 7.4 km/h 68 % 0 mm
05:39 7.1 °C 1.6 °C 1005.3 hPa North 11.3 km/h 7.4 km/h 68 % 0 mm
05:44 7.1 °C 1.6 °C 1005.3 hPa North 11.1 km/h 6.1 km/h 68 % 0 mm
05:49 7.1 °C 1.3 °C 1005.6 hPa North 11.1 km/h 6.4 km/h 67 % 0 mm
05:54 7.1 °C 1.3 °C 1005.3 hPa North 14.8 km/h 10.5 km/h 67 % 0 mm
05:59 7.1 °C 1.4 °C 1005.6 hPa North 11.1 km/h 8.5 km/h 67 % 0 mm
06:04 7.1 °C 1.4 °C 1005.3 hPa North 13 km/h 10.6 km/h 67 % 0 mm
06:09 7.2 °C 1.2 °C 1005.3 hPa North 14.8 km/h 10.8 km/h 66 % 0 mm
06:14 7.2 °C 1.2 °C 1005.3 hPa North 18.5 km/h 12.9 km/h 66 % 0 mm
06:19 7.2 °C 1.1 °C 1005.3 hPa North 20.4 km/h 8.7 km/h 65 % 0 mm
06:24 7.3 °C 1.2 °C 1005.3 hPa North 20.4 km/h 9 km/h 65 % 0 mm
06:29 7.3 °C 1.2 °C 1005.3 hPa North 14.8 km/h 7.7 km/h 65 % 0 mm
06:34 7.3 °C 0.9 °C 1005.3 hPa North 14.8 km/h 13.5 km/h 64 % 0 mm
06:39 7.3 °C 0.9 °C 1005.6 hPa North 16.7 km/h 8.7 km/h 64 % 0 mm
06:44 7.3 °C 0.7 °C 1005.6 hPa North 16.7 km/h 9 km/h 63 % 0 mm
06:49 7.4 °C 0.8 °C 1005.6 hPa North 16.7 km/h 12.7 km/h 63 % 0 mm
06:54 7.4 °C 0.8 °C 1005.6 hPa North 13 km/h 11.4 km/h 63 % 0 mm
06:59 7.4 °C 0.8 °C 1005.6 hPa North 13 km/h 5.1 km/h 63 % 0 mm
07:04 7.4 °C 0.8 °C 1006 hPa North 14.8 km/h 6.3 km/h 63 % 0 mm
07:09 7.3 °C 0.7 °C 1006 hPa North 9.3 km/h 5.3 km/h 63 % 0 mm
07:14 7.1 °C 0.8 °C 1006 hPa North 7.4 km/h 6.1 km/h 64 % 0 mm
07:19 7 °C 0.7 °C 1006 hPa North 16.7 km/h 6.1 km/h 64 % 0 mm
07:24 6.9 °C 0.6 °C 1006 hPa North 13 km/h 6.3 km/h 64 % 0 mm
07:29 6.8 °C 0.7 °C 1006 hPa North 16.7 km/h 9.7 km/h 65 % 0 mm
07:34 6.8 °C 0.7 °C 1006 hPa North 14.8 km/h 11.1 km/h 65 % 0 mm
07:39 6.7 °C 0.6 °C 1005.6 hPa North 14.8 km/h 10.6 km/h 65 % 0 mm
07:44 6.7 °C 0.6 °C 1005.6 hPa North 16.1 km/h 11.6 km/h 65 % 0 mm
07:49 6.7 °C 0.6 °C 1006 hPa North 11.1 km/h 8.4 km/h 65 % 0 mm
07:54 6.7 °C 0.6 °C 1006 hPa North 14.8 km/h 8.9 km/h 65 % 0 mm
07:59 6.7 °C 0.6 °C 1006 hPa North 13 km/h 8.7 km/h 65 % 0 mm
08:04 6.7 °C 0.6 °C 1006 hPa North 13 km/h 7.1 km/h 65 % 0 mm
08:09 6.8 °C 0.7 °C 1006 hPa North 9.7 km/h 6.9 km/h 65 % 0 mm
08:14 6.9 °C 0.8 °C 1006 hPa North 13 km/h 7.1 km/h 65 % 0 mm
08:19 6.9 °C 0.8 °C 1006 hPa North 13 km/h 5.8 km/h 65 % 0 mm
08:24 6.9 °C 0.8 °C 1006 hPa North 8 km/h 4 km/h 65 % 0 mm
08:29 6.9 °C 0.6 °C 1006 hPa North 8 km/h 5.8 km/h 64 % 0 mm
08:34 6.9 °C 0.8 °C 1006 hPa North 11.1 km/h 5.8 km/h 65 % 0 mm
08:39 6.9 °C 0.8 °C 1006 hPa North 7.4 km/h 5 km/h 65 % 0 mm
08:44 7 °C 0.9 °C 1006 hPa North 12.9 km/h 11.1 km/h 65 % 0 mm
08:49 7.1 °C 0.9 °C 1006 hPa North 18.5 km/h 10 km/h 65 % 0 mm
08:54 7.2 °C 1.2 °C 1006 hPa NNW 18.5 km/h 14.2 km/h 66 % 0 mm
08:59 7.2 °C 1.3 °C 1006 hPa North 13 km/h 9 km/h 66 % 0 mm
09:04 7.3 °C 1.3 °C 1006 hPa NNW 18.5 km/h 11.3 km/h 66 % 0 mm
09:09 7.3 °C 1.6 °C 1006 hPa NNW 14.8 km/h 8.7 km/h 67 % 0 mm
09:14 7.4 °C 1.4 °C 1006 hPa NNW 14.8 km/h 9.8 km/h 66 % 0 mm
09:19 7.4 °C 1.5 °C 1006 hPa NNW 14.8 km/h 6.9 km/h 66 % 0 mm
09:24 7.6 °C 1.6 °C 1006 hPa NNW 16.7 km/h 10.8 km/h 66 % 0 mm
09:29 7.7 °C 1.7 °C 1005.6 hPa North 16.7 km/h 8.5 km/h 66 % 0 mm
09:34 7.8 °C 1.7 °C 1006 hPa NNW 20.4 km/h 13.8 km/h 65 % 0 mm
09:39 8 °C 1.6 °C 1006 hPa NNW 20.4 km/h 11.9 km/h 64 % 0 mm
09:44 8.2 °C 1.6 °C 1005.6 hPa North 16.7 km/h 7.4 km/h 63 % 0 mm
09:49 8.3 °C 1.4 °C 1005.6 hPa North 25.9 km/h 8.9 km/h 62 % 0 mm
09:54 8.5 °C 1.6 °C 1005.6 hPa NNW 14.8 km/h 11.6 km/h 62 % 0 mm
09:59 8.7 °C 1.8 °C 1005.6 hPa NNW 16.7 km/h 8.2 km/h 62 % 0 mm
10:04 9 °C 1.9 °C 1006 hPa North 13 km/h 12.6 km/h 61 % 0 mm
10:09 8.9 °C 1.8 °C 1006 hPa NNW 14.8 km/h 10.3 km/h 61 % 0 mm
10:14 8.9 °C 1.8 °C 1006 hPa North 17.7 km/h 13.2 km/h 61 % 0 mm
10:19 8.7 °C 1.6 °C 1006.3 hPa NNW 16.7 km/h 8.9 km/h 61 % 0 mm
10:24 8.6 °C 1.4 °C 1006.3 hPa NNW 22.2 km/h 10.5 km/h 61 % 0 mm
10:29 8.4 °C 1.6 °C 1006.3 hPa NNW 18.5 km/h 12.9 km/h 62 % 0 mm
10:34 8.4 °C 1.7 °C 1006.3 hPa North 18.5 km/h 11.4 km/h 63 % 0 mm
10:39 8.4 °C 1.7 °C 1006.3 hPa North 14.5 km/h 10.6 km/h 63 % 0 mm
10:44 8.4 °C 1.8 °C 1006 hPa North 16.7 km/h 10.3 km/h 63 % 0 mm
10:49 8.6 °C 2.2 °C 1006.3 hPa NNW 16.7 km/h 11.7 km/h 64 % 0 mm
10:54 8.7 °C 2.1 °C 1006.3 hPa North 18.5 km/h 9.2 km/h 63 % 0 mm
10:59 8.8 °C 2.1 °C 1006.3 hPa North 14.8 km/h 6.1 km/h 63 % 0 mm
11:04 8.8 °C 1.9 °C 1006.3 hPa NNW 20.4 km/h 8.7 km/h 62 % 0 mm
11:09 9 °C 2.1 °C 1006.3 hPa NNW 13 km/h 6 km/h 62 % 0 mm
11:14 9.2 °C 2.3 °C 1006 hPa NNW 18.5 km/h 8.4 km/h 62 % 0 mm
11:19 9.5 °C 2.3 °C 1006 hPa North 16.7 km/h 12.6 km/h 61 % 0 mm
11:24 9.8 °C 2.4 °C 1006 hPa North 18.5 km/h 12.7 km/h 60 % 0 mm
11:29 9.8 °C 2.4 °C 1006 hPa NW 20.4 km/h 9.5 km/h 60 % 0 mm
11:34 9.9 °C 2.8 °C 1006 hPa North 11.3 km/h 9.3 km/h 61 % 0 mm
11:39 9.9 °C 3 °C 1006 hPa North 13 km/h 8.2 km/h 62 % 0 mm
11:44 9.9 °C 2.9 °C 1006 hPa North 24.1 km/h 11.6 km/h 62 % 0 mm
11:49 9.9 °C 2.9 °C 1006 hPa NW 18.5 km/h 12.9 km/h 62 % 0 mm
11:54 10 °C 3.3 °C 1006 hPa North 13 km/h 12.6 km/h 63 % 0 mm
11:59 10.1 °C 3.6 °C 1006 hPa NNW 14.8 km/h 7.6 km/h 64 % 0 mm
12:04 10.2 °C 3.9 °C 1005.6 hPa NNW 14.8 km/h 10.1 km/h 65 % 0 mm
12:09 10.3 °C 4.1 °C 1005.6 hPa NNW 16.7 km/h 7.1 km/h 65 % 0 mm
12:14 10.3 °C 4 °C 1005.6 hPa NNW 11.1 km/h 10.9 km/h 65 % 0 mm
12:19 10.3 °C 4.3 °C 1005.6 hPa NNW 14.8 km/h 9 km/h 66 % 0 mm
12:24 10.5 °C 4.4 °C 1005.3 hPa NNW 13 km/h 11.7 km/h 66 % 0 mm
12:29 10.5 °C 4.4 °C 1005.6 hPa NNW 18.5 km/h 12.7 km/h 66 % 0 mm
12:34 10.5 °C 4.6 °C 1005.3 hPa North 16.7 km/h 13 km/h 67 % 0 mm
12:39 10.6 °C 4.7 °C 1005.3 hPa NNW 16.7 km/h 9 km/h 67 % 0 mm
12:44 10.7 °C 5.1 °C 1005.3 hPa NNW 13 km/h 9.7 km/h 68 % 0 mm
12:49 11 °C 5.5 °C 1005.3 hPa NW 19.3 km/h 11.3 km/h 69 % 0 mm
12:54 11.1 °C 5.4 °C 1005.6 hPa NNW 18.5 km/h 12.7 km/h 68 % 0 mm
12:59 11 °C 5.5 °C 1005.3 hPa NW 18.5 km/h 10 km/h 69 % 0 mm
13:04 10.9 °C 5.5 °C 1005.6 hPa NNW 9.3 km/h 5.3 km/h 69 % 0 mm
13:09 10.9 °C 5.7 °C 1005.3 hPa North 16.7 km/h 6.1 km/h 70 % 0 mm
13:14 11 °C 5.9 °C 1005.3 hPa NW 13 km/h 11.4 km/h 71 % 0 mm
13:19 11.1 °C 6 °C 1005.3 hPa NW 14.5 km/h 9.3 km/h 71 % 0 mm
13:24 11.1 °C 6.3 °C 1005.3 hPa NNW 24.1 km/h 13.2 km/h 72 % 0 mm
13:29 11.2 °C 6.6 °C 1005.3 hPa NW 7.4 km/h 5.5 km/h 73 % 0 mm
13:34 11.4 °C 6.5 °C 1005.3 hPa NW 18.5 km/h 10.1 km/h 72 % 0 mm
13:39 11.5 °C 6.8 °C 1005.3 hPa NW 13 km/h 7.6 km/h 73 % 0 mm
13:44 11.6 °C 6.9 °C 1005.3 hPa NNW 18.5 km/h 12.7 km/h 73 % 0 mm
13:49 11.6 °C 7.1 °C 1005.3 hPa NW 16.7 km/h 15.8 km/h 74 % 0 mm
13:54 11.4 °C 7.2 °C 1005.3 hPa NW 18.5 km/h 12.7 km/h 75 % 0 mm
13:59 11.4 °C 7.3 °C 1005.6 hPa NNW 18.5 km/h 10.6 km/h 76 % 0 mm
14:04 11.4 °C 7.3 °C 1005.6 hPa WNW 18.5 km/h 14.3 km/h 76 % 0 mm
14:09 11.6 °C 7.5 °C 1005.3 hPa North 18.5 km/h 15.3 km/h 76 % 0 mm
14:14 11.9 °C 7.2 °C 1005.3 hPa NW 18.5 km/h 16.4 km/h 73 % 0 mm
14:19 12.1 °C 7.4 °C 1005.3 hPa WNW 18.5 km/h 10.9 km/h 73 % 0 mm
14:24 12.3 °C 6.6 °C 1005.3 hPa West 20.9 km/h 13.4 km/h 68 % 0 mm
14:29 12.3 °C 6.8 °C 1005.3 hPa NW 16.7 km/h 8.7 km/h 69 % 0 mm
14:34 12.4 °C 6.7 °C 1005.6 hPa WNW 17.7 km/h 9.7 km/h 68 % 0 mm
14:39 12.4 °C 6.5 °C 1005.3 hPa WNW 22.2 km/h 10.8 km/h 67 % 0 mm
14:44 12.3 °C 6.2 °C 1005.3 hPa West 20.4 km/h 15.3 km/h 66 % 0 mm
14:49 12.5 °C 6.6 °C 1005.3 hPa WNW 14.5 km/h 12.6 km/h 67 % 0 mm
14:54 12.6 °C 6.4 °C 1005.6 hPa WNW 14.8 km/h 7.6 km/h 66 % 0 mm
14:59 12.8 °C 6.1 °C 1005.6 hPa North 17.7 km/h 11.1 km/h 64 % 0 mm
15:04 12.8 °C 5.9 °C 1005.6 hPa NW 13 km/h 9.3 km/h 63 % 0 mm
15:09 12.9 °C 6.1 °C 1005.6 hPa NW 14.8 km/h 8.9 km/h 63 % 0 mm
15:14 13 °C 5.7 °C 1005.6 hPa WNW 13 km/h 7.2 km/h 61 % 0 mm
15:19 13.2 °C 5.4 °C 1005.6 hPa WNW 14.8 km/h 7.1 km/h 59 % 0 mm
15:24 13.3 °C 4.9 °C 1005.6 hPa NW 16.7 km/h 12.6 km/h 57 % 0 mm
15:29 13.1 °C 4.8 °C 1005.6 hPa North 20.4 km/h 14.5 km/h 57 % 0 mm
15:34 12.9 °C 5.1 °C 1006 hPa NW 11.3 km/h 8.5 km/h 59 % 0 mm
15:39 12.6 °C 5 °C 1006 hPa NW 9.7 km/h 9 km/h 60 % 0 mm
15:44 12.6 °C 5.3 °C 1006 hPa NW 11.3 km/h 9.3 km/h 61 % 0 mm
15:49 12.4 °C 5.1 °C 1006 hPa NW 13 km/h 6 km/h 61 % 0 mm
15:54 12.3 °C 5.2 °C 1006 hPa WNW 17.7 km/h 8.9 km/h 62 % 0 mm
15:59 12.3 °C 4.9 °C 1006 hPa North 16.7 km/h 10 km/h 61 % 0 mm
16:04 12.3 °C 5.3 °C 1006 hPa WNW 11.1 km/h 7.6 km/h 62 % 0 mm
16:09 12.4 °C 5.3 °C 1006 hPa WNW 9.3 km/h 6.4 km/h 62 % 0 mm
16:14 12.4 °C 5.3 °C 1006 hPa NW 18.5 km/h 7.1 km/h 62 % 0 mm
16:19 12.3 °C 5.3 °C 1006.3 hPa NW 16.1 km/h 10 km/h 62 % 0 mm
16:24 12.3 °C 5.2 °C 1006.3 hPa NNW 19.3 km/h 14 km/h 62 % 0 mm
16:29 12.3 °C 5.5 °C 1006.3 hPa NNW 14.8 km/h 9.7 km/h 63 % 0 mm
16:34 12.3 °C 5.5 °C 1006.3 hPa NW 7.4 km/h 3.7 km/h 63 % 0 mm
16:39 12.3 °C 5.4 °C 1006.3 hPa NW 9.7 km/h 9.3 km/h 63 % 0 mm
16:44 12.3 °C 5.4 °C 1006.3 hPa North 11.1 km/h 10 km/h 63 % 0 mm
16:49 12.3 °C 5.4 °C 1006.3 hPa North 5.6 km/h 1.9 km/h 63 % 0 mm
16:54 12.2 °C 5.6 °C 1006.3 hPa NW 6.4 km/h 2.1 km/h 64 % 0 mm
16:59 12.2 °C 5.6 °C 1006.3 hPa NW 1.9 km/h 2.9 km/h 64 % 0 mm
17:04 12 °C 5.6 °C 1006.3 hPa NW 5.6 km/h 0.3 km/h 65 % 0 mm
17:09 11.8 °C 5.4 °C 1006.7 hPa NW 16.7 km/h 6.9 km/h 65 % 0 mm
17:14 11.7 °C 5.3 °C 1006.7 hPa NW 9.3 km/h 4.5 km/h 65 % 0 mm
17:19 11.5 °C 5.4 °C 1006.7 hPa NW 16.1 km/h 8.5 km/h 66 % 0 mm
17:24 11.4 °C 5.3 °C 1006.7 hPa NW 9.7 km/h 6.9 km/h 66 % 0 mm
17:29 11.4 °C 5.3 °C 1006.7 hPa NW 13 km/h 4.7 km/h 66 % 0 mm
17:34 11.4 °C 5.5 °C 1007 hPa NW 7.4 km/h 2.9 km/h 67 % 0 mm
17:39 11.3 °C 5.4 °C 1007 hPa NW 5.6 km/h 3.9 km/h 67 % 0 mm
17:44 11.1 °C 5.4 °C 1007 hPa NW 5.6 km/h 3.5 km/h 68 % 0 mm
17:49 10.9 °C 5.4 °C 1007 hPa North 5.6 km/h 1.8 km/h 69 % 0 mm
17:54 10.7 °C 5.4 °C 1007.3 hPa NW 9.3 km/h 5.3 km/h 70 % 0 mm
17:59 10.8 °C 5.6 °C 1007 hPa NW 9.7 km/h 6.4 km/h 70 % 0 mm
18:04 10.9 °C 5.5 °C 1007.3 hPa NW 9.3 km/h 6 km/h 69 % 0 mm
18:09 10.9 °C 5.5 °C 1007.3 hPa NW 5.6 km/h 2.1 km/h 69 % 0 mm
18:14 10.8 °C 5.5 °C 1007.3 hPa NW 6.4 km/h 4.3 km/h 70 % 0 mm
18:19 10.6 °C 5.3 °C 1007.3 hPa North 9.3 km/h 4 km/h 70 % 0 mm
18:24 10.3 °C 5.2 °C 1007.3 hPa NW 6.4 km/h 5.8 km/h 71 % 0 mm
18:29 10.1 °C 5.3 °C 1007.3 hPa North 5.6 km/h 3.2 km/h 72 % 0 mm
18:34 9.9 °C 5.3 °C 1007.3 hPa NW 3.7 km/h 1.1 km/h 73 % 0 mm
18:39 9.9 °C 5.5 °C 1007.7 hPa NW 5.6 km/h 3.4 km/h 74 % 0 mm
18:44 10 °C 5.6 °C 1007.7 hPa NW 5.6 km/h 2.1 km/h 74 % 0 mm
18:49 10.1 °C 5.7 °C 1007.7 hPa Calm   1 km/h 74 % 0 mm
18:54 10 °C 5.4 °C 1007.7 hPa NW 5.6 km/h 0.2 km/h 73 % 0 mm
18:59 9.8 °C 5.2 °C 1007.3 hPa Calm     73 % 0 mm
19:04 9.7 °C 5.3 °C 1007.7 hPa Calm     74 % 0 mm
19:09 9.6 °C 5.2 °C 1007.7 hPa Calm     74 % 0 mm
19:14 9.4 °C 5 °C 1007.7 hPa North 1.9 km/h 0.2 km/h 74 % 0 mm
19:19 9.2 °C 5 °C 1007.7 hPa NW 12.9 km/h 6.1 km/h 75 % 0 mm
19:24 9.6 °C 5.7 °C 1007.3 hPa NW 8 km/h 7.2 km/h 77 % 0 mm
19:29 10 °C 5.9 °C 1007.3 hPa NW 13 km/h 7.9 km/h 76 % 0 mm
19:34 10.3 °C 6.1 °C 1007.3 hPa NW 11.1 km/h 6.8 km/h 75 % 0 mm
19:39 10.4 °C 5.9 °C 1007.7 hPa NW 13 km/h 7.9 km/h 74 % 0 mm
19:44 10.5 °C 6.1 °C 1007.7 hPa NNW 14.8 km/h 8.7 km/h 74 % 0 mm
19:49 10.5 °C 5.9 °C 1007.7 hPa North 9.3 km/h 9.3 km/h 73 % 0 mm
19:54 10.5 °C 5.9 °C 1007.7 hPa North 24.1 km/h 15 km/h 73 % 0 mm
19:59 10.6 °C 5.9 °C 1007.7 hPa NW 16.7 km/h 10 km/h 73 % 0 mm
20:04 10.5 °C 5.9 °C 1007.7 hPa NNW 24.1 km/h 13.2 km/h 73 % 0 mm
20:09 10.4 °C 5.8 °C 1007.7 hPa NNW 18.5 km/h 10 km/h 73 % 0 mm
20:14 10.4 °C 5.8 °C 1008 hPa NW 18.5 km/h 10.8 km/h 73 % 0 mm
20:19 10.4 °C 5.8 °C 1007.7 hPa North 18.5 km/h 15.9 km/h 73 % 0 mm
20:24 10.4 °C 5.8 °C 1008 hPa NNW 24.1 km/h 16.1 km/h 73 % 0 mm
20:29 10.4 °C 5.8 °C 1007.7 hPa NNW 20.4 km/h 13.2 km/h 73 % 0 mm
20:33 10.4 °C 5.8 °C 1007.7 hPa NNW 24.1 km/h 13 km/h 73 % 0 mm
20:44 10.4 °C 5.8 °C 1007.7 hPa NNW 24.1 km/h 13.7 km/h 73 % 0 mm
20:49 10.3 °C 5.7 °C 1008 hPa NW 16.7 km/h 10.6 km/h 73 % 0 mm
20:54 10.2 °C 5.6 °C 1008 hPa North 16.7 km/h 11.6 km/h 73 % 0 mm
20:59 10.1 °C 5.7 °C 1008 hPa NNW 16.7 km/h 11.9 km/h 74 % 0 mm
21:04 10.1 °C 5.7 °C 1008.4 hPa NW 18.5 km/h 10.6 km/h 74 % 0 mm
21:09 10.1 °C 5.6 °C 1008.4 hPa NNW 14.8 km/h 10.5 km/h 74 % 0 mm
21:14 9.9 °C 5.5 °C 1008.4 hPa NNW 13 km/h 6.8 km/h 74 % 0 mm
21:18 9.9 °C 5.4 °C 1008.4 hPa North 18.5 km/h 9.3 km/h 74 % 0 mm
21:24 9.8 °C 5.6 °C 1008.4 hPa North 18.5 km/h 8.7 km/h 75 % 0 mm
21:29 9.7 °C 5.4 °C 1008.4 hPa North 8 km/h 5.1 km/h 75 % 0 mm
21:34 9.6 °C 5.4 °C 1008.4 hPa North 9.3 km/h 5.5 km/h 75 % 0 mm
21:39 9.6 °C 5.6 °C 1008.4 hPa North 16.7 km/h 8 km/h 76 % 0 mm
21:44 9.4 °C 5.4 °C 1008.4 hPa North 13 km/h 10.8 km/h 76 % 0 mm
21:49 9.4 °C 5.4 °C 1008.4 hPa North 13 km/h 6.3 km/h 76 % 0 mm
21:54 9.3 °C 5.3 °C 1008.4 hPa North 11.3 km/h 8.2 km/h 76 % 0 mm
21:59 9.2 °C 5.2 °C 1008 hPa North 11.1 km/h 10.3 km/h 76 % 0 mm
22:04 9.1 °C 5.3 °C 1008 hPa North 14.8 km/h 12.1 km/h 77 % 0 mm
22:09 9.1 °C 5.2 °C 1008 hPa NNE 14.8 km/h 10.3 km/h 77 % 0 mm
22:14 9 °C 5.2 °C 1008 hPa NNE 16.7 km/h 9 km/h 77 % 0 mm
22:19 8.9 °C 5.3 °C 1008 hPa NNE 13 km/h 8.4 km/h 78 % 0 mm
22:24 8.8 °C 5.2 °C 1008 hPa NNE 16.7 km/h 10.5 km/h 78 % 0 mm
22:29 8.7 °C 5.2 °C 1008 hPa NNE 16.7 km/h 13.2 km/h 79 % 0 mm
22:34 8.7 °C 5.2 °C 1008 hPa NNE 14.8 km/h 7.9 km/h 79 % 0 mm
22:39 8.6 °C 5.1 °C 1008 hPa NNE 16.7 km/h 7.2 km/h 79 % 0 mm
22:44 8.5 °C 5.1 °C 1008 hPa NNE 13 km/h 8.2 km/h 79 % 0 mm
22:49 8.4 °C 5.2 °C 1008 hPa NNE 11.1 km/h 7.6 km/h 80 % 0 mm
22:54 8.3 °C 5.1 °C 1008 hPa NNE 11.1 km/h 9.2 km/h 80 % 0 mm
22:59 8.3 °C 5.1 °C 1007.7 hPa NNE 14.8 km/h 9.5 km/h 80 % 0 mm
23:04 8.4 °C 5.1 °C 1007.7 hPa NNE 14.8 km/h 9.7 km/h 80 % 0 mm
23:09 8.3 °C 5.1 °C 1007.7 hPa NNE 18.5 km/h 9 km/h 80 % 0 mm
23:14 8.3 °C 5.1 °C 1007.7 hPa NNE 14.8 km/h 7.4 km/h 80 % 0 mm
23:19 8.3 °C 5.1 °C 1007.7 hPa NNE 7.4 km/h 3.7 km/h 80 % 0 mm
23:24 8.3 °C 5.1 °C 1008 hPa NNE 7.4 km/h 5.3 km/h 80 % 0 mm
23:29 8.3 °C 5.1 °C 1007.7 hPa NNE 11.1 km/h 6.4 km/h 80 % 0 mm
23:34 8.3 °C 5.1 °C 1007.7 hPa NNE 16.7 km/h 10.9 km/h 80 % 0 mm
23:39 8.4 °C 5.1 °C 1007.7 hPa NNE 9.7 km/h 6.4 km/h 80 % 0 mm
23:44 8.4 °C 5.1 °C 1007.7 hPa North 18.5 km/h 13.2 km/h 80 % 0 mm
23:49 8.4 °C 5.2 °C 1007.7 hPa North 16.7 km/h 10.3 km/h 80 % 0 mm
23:54 8.4 °C 5 °C 1007.7 hPa North 14.8 km/h 11.3 km/h 79 % 0 mm
23:59 8.5 °C 5.1 °C 1007.7 hPa North 14.5 km/h 10.1 km/h 79 % 0 mm
Ararat Weather
Compliments of Weather Underground - 2.25 mb
Click here to send mail.


ABOUT

Live weather data from Ararat, Victoria, Australia, 3377
Data uploaded from Cumulus every 5 minutes to Weather Underground.
This site then downloads the raw data for formatting and display.
Metric and imperial data can be displayed. Graphs and historical data available.
Includes Sun and Moon times and rain image live from BOM.

Check out Ararat Weather on Facebook, Twitter and Google +

Help support ongoing costs by checking out the ads





Follow @AraratWeather